createdAt,value
2023-08-11T00:03:52.370Z,98987.63
2023-08-11T00:08:55.793Z,98980.97
2023-08-11T00:13:58.616Z,98986.03
2023-08-11T00:19:02.766Z,98989.00
2023-08-11T00:24:07.598Z,98995.19
2023-08-11T00:29:12.797Z,98985.47
2023-08-11T00:34:17.087Z,98994.22
2023-08-11T00:39:19.888Z,98983.22
2023-08-11T00:44:23.111Z,98988.00
2023-08-11T00:49:27.433Z,98987.28
2023-08-11T00:54:32.323Z,98990.94
2023-08-11T00:59:35.224Z,98993.03
2023-08-11T01:04:41.154Z,98981.75
2023-08-11T01:09:53.275Z,98980.03
2023-08-11T01:15:05.978Z,98969.06
2023-08-11T01:20:13.179Z,98971.44
2023-08-11T01:25:19.453Z,98958.31
2023-08-11T01:30:22.341Z,98953.63
2023-08-11T01:35:34.313Z,98958.69
2023-08-11T01:40:45.646Z,98958.53
2023-08-11T01:45:50.367Z,98957.53
2023-08-11T01:50:53.470Z,98950.63
2023-08-11T01:55:58.174Z,98955.81
2023-08-11T02:01:01.032Z,98964.38
2023-08-11T02:06:05.132Z,98951.25
2023-08-11T02:11:11.416Z,98958.75
2023-08-11T02:16:14.994Z,98960.91
2023-08-11T02:21:18.005Z,98957.69
2023-08-11T02:26:22.963Z,98955.28
2023-08-11T02:31:26.883Z,98948.63
2023-08-11T02:36:29.675Z,98949.16
2023-08-11T02:41:34.716Z,98950.41
2023-08-11T02:46:39.003Z,98952.63
2023-08-11T02:51:41.911Z,98943.63
2023-08-11T02:56:50.380Z,98945.88
2023-08-11T03:01:53.246Z,98946.09
2023-08-11T03:06:56.730Z,98943.56
2023-08-11T03:12:01.069Z,98944.81
2023-08-11T03:17:07.282Z,98948.31
2023-08-11T03:22:12.840Z,98941.00
2023-08-11T03:27:17.504Z,98942.09
2023-08-11T03:32:21.304Z,98938.69
2023-08-11T03:37:25.267Z,98944.16
2023-08-11T03:42:29.473Z,98941.63
2023-08-11T03:47:32.486Z,98949.06
2023-08-11T03:52:36.995Z,98949.94
2023-08-11T03:57:41.312Z,98951.19
2023-08-11T04:02:47.570Z,98950.72
2023-08-11T04:07:54.645Z,98945.88
2023-08-11T04:12:58.905Z,98944.91
2023-08-11T04:18:02.041Z,98946.47
2023-08-11T04:23:06.078Z,98942.81
2023-08-11T04:28:14.095Z,98947.06
2023-08-11T04:33:17.620Z,98957.97
2023-08-11T04:38:21.297Z,98964.84
2023-08-11T04:43:26.461Z,98959.84
2023-08-11T04:48:31.005Z,98963.28
2023-08-11T04:53:35.204Z,98951.72
2023-08-11T04:58:40.476Z,98963.63
2023-08-11T05:03:44.395Z,98967.19
2023-08-11T05:08:47.609Z,98969.91
2023-08-11T05:13:52.068Z,98977.59
2023-08-11T05:18:56.046Z,98976.72
2023-08-11T05:23:59.317Z,98978.16
2023-08-11T05:29:03.550Z,98977.63
2023-08-11T05:34:06.519Z,98975.13
2023-08-11T05:39:12.512Z,98980.78
2023-08-11T05:44:16.702Z,98981.66
2023-08-11T05:49:20.251Z,98975.31
2023-08-11T05:54:23.148Z,98970.75
2023-08-11T05:59:28.780Z,98970.53
2023-08-11T06:04:31.705Z,98980.03
2023-08-11T06:09:35.209Z,98978.78
2023-08-11T06:14:39.441Z,98974.47
2023-08-11T06:19:42.268Z,98983.63
2023-08-11T06:24:45.594Z,98985.13
2023-08-11T06:29:50.585Z,98985.56
2023-08-11T06:34:54.520Z,98990.41
2023-08-11T06:39:59.420Z,98986.56
2023-08-11T06:45:05.636Z,98991.69
2023-08-11T06:50:09.310Z,99001.25
2023-08-11T06:55:12.148Z,98996.66
2023-08-11T07:00:17.486Z,98998.59
2023-08-11T07:05:20.399Z,98993.63
2023-08-11T07:10:23.274Z,98997.66
2023-08-11T07:15:28.486Z,98994.84
2023-08-11T07:20:31.327Z,98989.13
2023-08-11T07:25:34.671Z,98991.44
2023-08-11T07:30:38.921Z,98992.63
2023-08-11T07:35:42.512Z,98989.69
2023-08-11T07:40:45.371Z,98999.97
2023-08-11T07:45:50.332Z,99000.34
2023-08-11T07:50:53.261Z,98996.94
2023-08-11T07:55:57.300Z,98996.00
2023-08-11T08:01:02.818Z,99005.03
2023-08-11T08:06:06.144Z,98997.75
2023-08-11T08:11:09.486Z,98991.03
2023-08-11T08:16:13.876Z,98988.25
2023-08-11T08:21:17.368Z,98986.09
2023-08-11T08:26:20.185Z,98987.69
2023-08-11T08:31:24.427Z,98982.84
2023-08-11T08:36:28.085Z,98985.22
2023-08-11T08:41:33.356Z,98983.06
2023-08-11T08:46:38.695Z,98979.56
2023-08-11T08:51:43.536Z,98982.88
2023-08-11T08:56:47.429Z,98975.41
2023-08-11T09:01:52.374Z,98980.16
2023-08-11T09:06:55.472Z,98977.06
2023-08-11T09:11:59.986Z,98978.25
2023-08-11T09:17:04.395Z,98970.25
2023-08-11T09:22:12.371Z,98971.28
2023-08-11T09:27:15.470Z,98972.97
2023-08-11T09:32:26.997Z,98972.06
2023-08-11T09:37:30.119Z,98955.97
2023-08-11T09:42:33.892Z,98965.34
2023-08-11T09:47:38.085Z,98953.47
2023-08-11T09:52:42.131Z,98959.03
2023-08-11T09:57:46.006Z,98962.38
2023-08-11T10:02:58.439Z,98962.34
2023-08-11T10:08:05.654Z,98958.47
2023-08-11T10:13:13.207Z,98952.06
2023-08-11T10:18:20.411Z,98962.00
2023-08-11T10:23:23.664Z,98955.44
2023-08-11T10:28:27.036Z,98954.56
2023-08-11T10:33:32.533Z,98955.41
2023-08-11T10:38:35.795Z,98953.28
2023-08-11T10:43:42.237Z,98945.13
2023-08-11T10:48:46.560Z,98938.09
2023-08-11T10:53:49.546Z,98942.56
2023-08-11T10:58:52.764Z,98935.84
2023-08-11T11:03:57.189Z,98926.41
2023-08-11T11:09:01.230Z,98926.59
2023-08-11T11:14:04.708Z,98914.19
2023-08-11T11:19:10.498Z,98908.66
2023-08-11T11:24:13.326Z,98915.09
2023-08-11T11:29:18.390Z,98904.88
2023-08-11T11:34:23.481Z,98910.94
2023-08-11T11:39:27.119Z,98907.47
2023-08-11T11:44:30.739Z,98900.41
2023-08-11T11:49:34.885Z,98906.41
2023-08-11T11:54:38.521Z,98908.66
2023-08-11T11:59:42.708Z,98910.78
2023-08-11T12:04:48.371Z,98912.19
2023-08-11T12:09:52.068Z,98905.00
2023-08-11T12:14:55.376Z,98906.81
2023-08-11T12:19:59.827Z,98901.34
2023-08-11T12:25:02.666Z,98901.19
2023-08-11T12:30:10.632Z,98893.31
2023-08-11T12:35:16.271Z,98897.84
2023-08-11T12:40:19.777Z,98888.06
2023-08-11T12:45:22.733Z,98882.22
2023-08-11T12:50:29.417Z,98879.28
2023-08-11T12:55:32.517Z,98885.53
2023-08-11T13:00:36.346Z,98875.81
2023-08-11T13:05:40.892Z,98871.44
2023-08-11T13:10:44.103Z,98881.34
2023-08-11T13:15:48.565Z,98877.19
2023-08-11T13:20:53.004Z,98874.09
2023-08-11T13:25:56.184Z,98868.59
2023-08-11T13:30:58.986Z,98854.56
2023-08-11T13:36:03.237Z,98867.00
2023-08-11T13:41:06.065Z,98867.75
2023-08-11T13:46:09.456Z,98853.34
2023-08-11T13:51:14.000Z,98836.19
2023-08-11T13:56:16.803Z,98825.69
2023-08-11T14:01:19.696Z,98844.84
2023-08-11T14:06:25.172Z,98850.31
2023-08-11T14:11:28.184Z,98836.59
2023-08-11T14:16:31.204Z,98830.50
2023-08-11T14:21:35.412Z,98824.31
2023-08-11T14:26:38.945Z,98818.81
2023-08-11T14:31:42.307Z,98832.06
2023-08-11T14:36:46.798Z,98834.44
2023-08-11T14:41:50.612Z,98827.56
2023-08-11T14:46:53.722Z,98823.78
2023-08-11T14:51:57.918Z,98821.56
2023-08-11T14:57:00.792Z,98807.91
2023-08-11T15:02:03.555Z,98812.69
2023-08-11T15:07:08.377Z,98802.97
2023-08-11T15:12:12.722Z,98796.81
2023-08-11T15:17:15.771Z,98808.22
2023-08-11T15:22:20.657Z,98796.84
2023-08-11T15:27:23.748Z,98799.09
2023-08-11T15:32:26.687Z,98798.09
2023-08-11T15:37:31.354Z,98803.22
2023-08-11T15:42:34.184Z,98803.78
2023-08-11T15:47:37.248Z,98804.53
2023-08-11T15:52:41.416Z,98803.47
2023-08-11T15:57:44.947Z,98786.59
2023-08-11T16:02:49.489Z,98783.03
2023-08-11T16:07:54.881Z,98764.13
2023-08-11T16:12:58.506Z,98770.69
2023-08-11T16:18:01.405Z,98768.72
2023-08-11T16:23:06.634Z,98762.06
2023-08-11T16:28:11.737Z,98766.38
2023-08-11T16:33:14.626Z,98758.72
2023-08-11T16:38:18.876Z,98778.31
2023-08-11T16:43:22.675Z,98772.38
2023-08-11T16:48:25.458Z,98764.34
2023-08-11T16:53:29.638Z,98749.78
2023-08-11T16:58:33.323Z,98756.13
2023-08-11T17:03:36.247Z,98764.56
2023-08-11T17:08:40.711Z,98766.13
2023-08-11T17:13:44.139Z,98757.59
2023-08-11T17:18:50.623Z,98753.97
2023-08-11T17:23:55.853Z,98745.31
2023-08-11T17:28:58.785Z,98743.94
2023-08-11T17:34:02.452Z,98730.53
2023-08-11T17:39:08.311Z,98737.09
2023-08-11T17:44:11.193Z,98730.84
2023-08-11T17:49:14.491Z,98731.59
2023-08-11T17:54:21.052Z,98721.66
2023-08-11T17:59:24.357Z,98726.53
2023-08-11T18:04:27.208Z,98729.53
2023-08-11T18:09:32.255Z,98737.38
2023-08-11T18:14:35.355Z,98740.75
2023-08-11T18:19:38.271Z,98739.25
2023-08-11T18:24:42.445Z,98736.94
2023-08-11T18:29:46.149Z,98733.19
2023-08-11T18:34:49.011Z,98730.59
2023-08-11T18:39:53.727Z,98734.59
2023-08-11T18:44:57.047Z,98741.66
2023-08-11T18:50:00.047Z,98733.66
2023-08-11T18:55:04.471Z,98741.00
2023-08-11T19:00:10.051Z,98740.78
2023-08-11T19:05:14.146Z,98744.72
2023-08-11T19:10:18.935Z,98747.34
2023-08-11T19:15:22.310Z,98744.63
2023-08-11T19:20:25.149Z,98750.94
2023-08-11T19:25:30.397Z,98749.06
2023-08-11T19:30:33.739Z,98748.03
2023-08-11T19:35:36.635Z,98743.16
2023-08-11T19:40:45.049Z,98740.19
2023-08-11T19:45:49.492Z,98739.31
2023-08-11T19:50:52.371Z,98738.19
2023-08-11T19:55:56.681Z,98736.44
2023-08-11T20:01:00.860Z,98735.72
2023-08-11T20:06:04.728Z,98730.81
2023-08-11T20:11:09.190Z,98728.22
2023-08-11T20:16:12.083Z,98718.69
2023-08-11T20:21:15.139Z,98722.34
2023-08-11T20:26:19.323Z,98713.69
2023-08-11T20:31:23.587Z,98714.66
2023-08-11T20:36:26.460Z,98709.31
2023-08-11T20:41:30.946Z,98704.09
2023-08-11T20:46:33.847Z,98714.28
2023-08-11T20:51:37.700Z,98715.00
2023-08-11T20:56:41.962Z,98709.50
2023-08-11T21:01:45.378Z,98707.84
2023-08-11T21:06:48.731Z,98707.00
2023-08-11T21:11:56.424Z,98713.84
2023-08-11T21:17:02.545Z,98707.75
2023-08-11T21:22:06.274Z,98708.91
2023-08-11T21:27:10.864Z,98714.03
2023-08-11T21:32:15.089Z,98714.78
2023-08-11T21:37:19.044Z,98709.09
2023-08-11T21:42:23.284Z,98712.47
2023-08-11T21:47:27.133Z,98713.59
2023-08-11T21:52:31.001Z,98718.09
2023-08-11T21:57:35.456Z,98712.44
2023-08-11T22:02:38.821Z,98714.38
2023-08-11T22:07:43.643Z,98704.47
2023-08-11T22:12:47.820Z,98703.91
2023-08-11T22:17:52.120Z,98697.34
2023-08-11T22:22:54.946Z,98696.88
2023-08-11T22:27:59.081Z,98690.78
2023-08-11T22:33:02.635Z,98697.81
2023-08-11T22:38:05.633Z,98694.91
2023-08-11T22:43:09.953Z,98688.84
2023-08-11T22:48:12.986Z,98694.31
2023-08-11T22:53:15.857Z,98681.91
2023-08-11T22:58:20.055Z,98688.13
2023-08-11T23:03:22.888Z,98687.69
2023-08-11T23:08:26.256Z,98685.34
2023-08-11T23:13:30.670Z,98692.59
2023-08-11T23:18:33.847Z,98685.50
2023-08-11T23:23:36.904Z,98682.31
2023-08-11T23:28:41.171Z,98682.97
2023-08-11T23:33:44.115Z,98676.00
2023-08-11T23:38:48.663Z,98661.44
2023-08-11T23:43:53.208Z,98681.25
2023-08-11T23:48:56.260Z,98699.25
2023-08-11T23:53:59.111Z,98695.09
2023-08-11T23:59:03.382Z,98678.56
